createdAt,value
2022-08-17T00:01:30.262Z,99366.28
2022-08-17T00:04:11.619Z,99363.81
2022-08-17T00:06:38.286Z,99361.81
2022-08-17T00:09:05.478Z,99361.50
2022-08-17T00:11:39.692Z,99367.72
2022-08-17T00:14:09.719Z,99363.38
2022-08-17T00:16:55.822Z,99367.53
2022-08-17T00:19:25.267Z,99363.66
2022-08-17T00:22:32.623Z,99357.66
2022-08-17T00:24:39.783Z,99364.97
2022-08-17T00:27:06.449Z,99372.28
2022-08-17T00:29:32.911Z,99363.44
2022-08-17T00:31:59.557Z,99361.44
2022-08-17T00:34:27.932Z,99361.59
2022-08-17T00:36:54.521Z,99373.84
2022-08-17T00:39:20.977Z,99368.06
2022-08-17T00:41:47.685Z,99375.59
2022-08-17T00:44:15.603Z,99369.16
2022-08-17T00:46:43.580Z,99375.59
2022-08-17T00:49:11.855Z,99370.69
2022-08-17T00:51:46.734Z,99374.47
2022-08-17T00:54:18.490Z,99369.41
2022-08-17T00:56:48.521Z,99368.91
2022-08-17T00:59:18.910Z,99370.47
2022-08-17T01:01:46.442Z,99367.06
2022-08-17T01:04:13.157Z,99363.75
2022-08-17T01:06:40.777Z,99375.41
2022-08-17T01:09:08.662Z,99358.00
2022-08-17T01:11:37.126Z,99365.78
2022-08-17T01:14:04.050Z,99373.06
2022-08-17T01:16:31.609Z,99368.81
2022-08-17T01:19:13.803Z,99363.53
2022-08-17T01:22:27.116Z,99365.91
2022-08-17T01:24:58.969Z,99372.03
2022-08-17T01:27:26.763Z,99364.41
2022-08-17T01:29:58.130Z,99364.13
2022-08-17T01:32:26.683Z,99372.72
2022-08-17T01:34:53.800Z,99368.63
2022-08-17T01:37:28.676Z,99373.81
2022-08-17T01:40:00.673Z,99374.25
2022-08-17T01:42:40.357Z,99373.63
2022-08-17T01:45:14.620Z,99378.13
2022-08-17T01:47:41.692Z,99377.75
2022-08-17T01:50:11.268Z,99385.63
2022-08-17T01:52:38.125Z,99374.94
2022-08-17T01:55:05.308Z,99375.63
2022-08-17T01:57:31.774Z,99381.63
2022-08-17T01:59:58.692Z,99376.50
2022-08-17T02:02:30.908Z,99376.72
2022-08-17T02:04:58.978Z,99373.75
2022-08-17T02:07:26.976Z,99377.41
2022-08-17T02:09:53.644Z,99381.63
2022-08-17T02:12:38.538Z,99379.31
2022-08-17T02:15:07.816Z,99376.00
2022-08-17T02:17:35.073Z,99379.53
2022-08-17T02:20:02.031Z,99382.22
2022-08-17T02:22:28.929Z,99385.41
2022-08-17T02:25:00.952Z,99381.31
2022-08-17T02:27:28.624Z,99388.22
2022-08-17T02:29:55.150Z,99387.41
2022-08-17T02:32:27.832Z,99386.22
2022-08-17T02:34:56.535Z,99381.75
2022-08-17T02:37:23.124Z,99380.09
2022-08-17T02:39:49.645Z,99384.44
2022-08-17T02:42:16.292Z,99378.81
2022-08-17T02:44:42.907Z,99382.34
2022-08-17T02:47:11.878Z,99387.63
2022-08-17T02:49:38.493Z,99384.91
2022-08-17T02:52:06.603Z,99388.66
2022-08-17T02:54:41.159Z,99389.84
2022-08-17T02:57:09.158Z,99393.00
2022-08-17T02:59:35.631Z,99390.91
2022-08-17T03:02:04.354Z,99390.53
2022-08-17T03:04:31.196Z,99386.31
2022-08-17T03:07:01.848Z,99395.03
2022-08-17T03:09:28.326Z,99384.56
2022-08-17T03:11:55.832Z,99390.44
2022-08-17T03:14:26.242Z,99388.22
2022-08-17T03:16:53.040Z,99390.09
2022-08-17T03:19:19.825Z,99389.25
2022-08-17T03:21:46.261Z,99395.84
2022-08-17T03:24:21.677Z,99395.63
2022-08-17T03:26:55.188Z,99393.94
2022-08-17T03:29:21.717Z,99399.72
2022-08-17T03:31:49.211Z,99392.91
2022-08-17T03:34:16.555Z,99403.00
2022-08-17T03:36:43.397Z,99407.56
2022-08-17T03:39:10.170Z,99410.72
2022-08-17T03:41:36.912Z,99412.41
2022-08-17T03:44:03.888Z,99419.56
2022-08-17T03:46:49.232Z,99419.09
2022-08-17T03:49:34.540Z,99411.13
2022-08-17T03:52:19.824Z,99423.56
2022-08-17T03:55:05.122Z,99422.03
2022-08-17T03:57:32.507Z,99427.34
2022-08-17T03:59:59.709Z,99421.34
2022-08-17T04:02:32.500Z,99432.16
2022-08-17T04:04:59.677Z,99436.63
2022-08-17T04:07:30.654Z,99431.94
2022-08-17T04:09:59.386Z,99435.56
2022-08-17T04:12:30.972Z,99440.06
2022-08-17T04:14:58.742Z,99441.47
2022-08-17T04:17:27.809Z,99444.97
2022-08-17T04:19:55.282Z,99442.66
2022-08-17T04:22:30.847Z,99443.59
2022-08-17T04:25:14.650Z,99450.53
2022-08-17T04:27:41.208Z,99438.53
2022-08-17T04:30:08.356Z,99435.09
2022-08-17T04:33:10.644Z,99437.19
2022-08-17T04:35:42.813Z,99440.69
2022-08-17T04:38:11.924Z,99446.59
2022-08-17T04:40:56.974Z,99444.34
2022-08-17T04:43:25.001Z,99442.00
2022-08-17T04:45:58.208Z,99443.63
2022-08-17T04:48:36.487Z,99443.84
2022-08-17T04:51:10.699Z,99429.81
2022-08-17T04:53:39.236Z,99431.94
2022-08-17T04:56:06.126Z,99440.00
2022-08-17T04:58:32.662Z,99433.50
2022-08-17T05:00:59.562Z,99439.22
2022-08-17T05:03:26.147Z,99444.50
2022-08-17T05:05:53.711Z,99446.47
2022-08-17T05:08:21.197Z,99453.47
2022-08-17T05:10:48.299Z,99451.91
2022-08-17T05:13:17.601Z,99453.75
2022-08-17T05:15:47.786Z,99450.56
2022-08-17T05:18:14.956Z,99445.88
2022-08-17T05:20:41.664Z,99451.47
2022-08-17T05:23:10.702Z,99457.47
2022-08-17T05:25:41.134Z,99458.88
2022-08-17T05:28:08.887Z,99460.34
2022-08-17T05:30:36.130Z,99461.25
2022-08-17T05:33:06.611Z,99466.41
2022-08-17T05:35:35.329Z,99469.59
2022-08-17T05:38:02.036Z,99466.59
2022-08-17T05:40:32.865Z,99465.72
2022-08-17T05:43:36.602Z,99475.75
2022-08-17T05:46:25.338Z,99470.56
2022-08-17T05:48:55.096Z,99476.78
2022-08-17T05:51:46.048Z,99482.31
2022-08-17T05:54:27.208Z,99486.84
2022-08-17T05:57:20.946Z,99482.63
2022-08-17T05:59:50.759Z,99481.47
2022-08-17T06:02:35.937Z,99478.00
2022-08-17T06:05:23.491Z,99482.16
2022-08-17T06:08:15.439Z,99482.56
2022-08-17T06:10:47.826Z,99481.47
2022-08-17T06:13:31.682Z,99490.41
2022-08-17T06:16:33.554Z,99493.66
2022-08-17T06:19:01.559Z,99499.34
2022-08-17T06:21:33.455Z,99503.88
2022-08-17T06:24:06.703Z,99501.19
2022-08-17T06:26:38.554Z,99508.59
2022-08-17T06:29:37.213Z,99500.34
2022-08-17T06:32:05.649Z,99507.72
2022-08-17T06:34:33.877Z,99497.97
2022-08-17T06:37:22.021Z,99510.81
2022-08-17T06:39:52.835Z,99511.34
2022-08-17T06:42:54.759Z,99516.88
2022-08-17T06:45:17.904Z,99525.06
2022-08-17T06:48:01.156Z,99524.88
2022-08-17T06:50:40.690Z,99527.16
2022-08-17T06:53:23.689Z,99519.47
2022-08-17T06:56:05.409Z,99507.66
2022-08-17T06:58:33.396Z,99518.00
2022-08-17T07:01:10.806Z,99529.81
2022-08-17T07:03:45.705Z,99544.69
2022-08-17T07:06:18.014Z,99552.88
2022-08-17T07:08:59.749Z,99563.16
2022-08-17T07:11:40.563Z,99568.09
2022-08-17T07:14:37.727Z,99582.28
2022-08-17T07:17:09.443Z,99575.84
2022-08-17T07:19:41.094Z,99579.28
2022-08-17T07:22:14.078Z,99573.38
2022-08-17T07:24:58.089Z,99582.41
2022-08-17T07:27:31.211Z,99581.25
2022-08-17T07:30:10.226Z,99575.59
2022-08-17T07:32:46.363Z,99579.22
2022-08-17T07:35:40.965Z,99582.53
2022-08-17T07:38:24.920Z,99586.94
2022-08-17T07:41:02.113Z,99583.25
2022-08-17T07:43:37.746Z,99579.06
2022-08-17T07:46:44.936Z,99576.97
2022-08-17T07:49:12.548Z,99562.38
2022-08-17T07:51:45.737Z,99563.47
2022-08-17T07:54:15.314Z,99548.03
2022-08-17T07:56:53.563Z,99538.53
2022-08-17T07:59:33.567Z,99532.03
2022-08-17T08:02:08.183Z,99528.72
2022-08-17T08:05:00.945Z,99535.25
2022-08-17T08:07:35.920Z,99542.16
2022-08-17T08:10:09.550Z,99535.63
2022-08-17T08:13:14.199Z,99529.72
2022-08-17T08:15:53.691Z,99520.19
2022-08-17T08:18:53.866Z,99515.53
2022-08-17T08:21:24.469Z,99511.47
2022-08-17T08:24:00.277Z,99515.50
2022-08-17T08:26:55.535Z,99520.41
2022-08-17T08:29:28.431Z,99512.34
2022-08-17T08:32:20.503Z,99519.16
2022-08-17T08:35:04.916Z,99522.28
2022-08-17T08:37:58.278Z,99507.09
2022-08-17T08:40:45.582Z,99517.53
2022-08-17T08:43:37.295Z,99523.84
2022-08-17T08:46:45.721Z,99517.72
2022-08-17T08:49:59.097Z,99523.06
2022-08-17T08:52:37.424Z,99522.25
2022-08-17T08:55:07.777Z,99511.53
2022-08-17T08:57:42.618Z,99510.81
2022-08-17T09:00:35.895Z,99511.38
2022-08-17T09:03:28.114Z,99515.13
2022-08-17T09:06:39.402Z,99508.84
2022-08-17T09:09:41.775Z,99511.63
2022-08-17T09:12:16.798Z,99506.53
2022-08-17T09:14:53.299Z,99514.50
2022-08-17T09:17:36.675Z,99521.13
2022-08-17T09:20:27.177Z,99512.84
2022-08-17T09:23:03.974Z,99516.91
2022-08-17T09:25:33.277Z,99515.25
2022-08-17T09:28:06.674Z,99514.78
2022-08-17T09:30:40.723Z,99515.00
2022-08-17T09:33:09.385Z,99511.09
2022-08-17T09:35:44.578Z,99524.09
2022-08-17T09:38:31.766Z,99517.00
2022-08-17T09:41:19.545Z,99525.06
2022-08-17T09:44:22.574Z,99523.25
2022-08-17T09:47:06.226Z,99527.91
2022-08-17T09:49:45.407Z,99528.53
2022-08-17T09:52:21.234Z,99530.34
2022-08-17T09:54:48.848Z,99519.44
2022-08-17T09:57:42.443Z,99524.34
2022-08-17T10:00:18.748Z,99527.69
2022-08-17T10:02:55.796Z,99522.28
2022-08-17T10:05:46.463Z,99521.47
2022-08-17T10:08:28.771Z,99518.25
2022-08-17T10:11:17.453Z,99520.63
2022-08-17T10:13:59.647Z,99528.75
2022-08-17T10:16:38.976Z,99530.53
2022-08-17T10:19:18.872Z,99524.53
2022-08-17T10:22:32.704Z,99525.75
2022-08-17T10:25:23.960Z,99527.72
2022-08-17T10:27:55.580Z,99522.25
2022-08-17T10:30:25.489Z,99530.94
2022-08-17T10:33:24.160Z,99523.19
2022-08-17T10:35:59.491Z,99530.38
2022-08-17T10:38:47.956Z,99522.69
2022-08-17T10:41:27.883Z,99526.41
2022-08-17T10:44:38.519Z,99518.50
2022-08-17T10:47:16.663Z,99529.53
2022-08-17T10:49:49.647Z,99522.56
2022-08-17T10:52:19.388Z,99521.47
2022-08-17T10:54:57.896Z,99524.44
2022-08-17T10:57:34.499Z,99523.78
2022-08-17T11:00:03.239Z,99521.88
2022-08-17T11:02:37.995Z,99533.91
2022-08-17T11:05:28.661Z,99536.59
2022-08-17T11:08:13.968Z,99533.78
2022-08-17T11:10:53.332Z,99521.91
2022-08-17T11:13:38.741Z,99515.13
2022-08-17T11:16:22.291Z,99523.94
2022-08-17T11:19:14.845Z,99523.88
2022-08-17T11:21:59.990Z,99528.19
2022-08-17T11:24:43.391Z,99522.69
2022-08-17T11:27:20.136Z,99531.09
2022-08-17T11:30:01.474Z,99535.31
2022-08-17T11:32:34.016Z,99532.63
2022-08-17T11:35:21.898Z,99528.16
2022-08-17T11:38:15.052Z,99519.91
2022-08-17T11:41:05.754Z,99524.47
2022-08-17T11:43:55.457Z,99515.00
2022-08-17T11:47:07.940Z,99517.59
2022-08-17T11:50:08.213Z,99520.59
2022-08-17T11:52:38.642Z,99516.69
2022-08-17T11:55:33.505Z,99516.69
2022-08-17T11:58:01.887Z,99519.94
2022-08-17T12:00:40.684Z,99513.31
2022-08-17T12:03:43.406Z,99505.31
2022-08-17T12:06:30.498Z,99508.19
2022-08-17T12:09:18.400Z,99514.81
2022-08-17T12:12:12.763Z,99508.53
2022-08-17T12:15:11.543Z,99514.19
2022-08-17T12:17:42.736Z,99512.16
2022-08-17T12:20:31.089Z,99521.34
2022-08-17T12:23:06.553Z,99519.72
2022-08-17T12:25:58.302Z,99516.38
2022-08-17T12:28:30.755Z,99528.53
2022-08-17T12:31:01.644Z,99529.78
2022-08-17T12:33:31.139Z,99525.94
2022-08-17T12:36:03.321Z,99521.47
2022-08-17T12:38:36.276Z,99534.88
2022-08-17T12:41:25.123Z,99536.13
2022-08-17T12:44:04.568Z,99530.13
2022-08-17T12:46:34.128Z,99531.66
2022-08-17T12:49:33.405Z,99544.84
2022-08-17T12:52:04.402Z,99541.84
2022-08-17T12:54:54.103Z,99544.19
2022-08-17T12:57:35.084Z,99542.88
2022-08-17T13:00:20.021Z,99543.28
2022-08-17T13:02:51.291Z,99540.19
2022-08-17T13:05:33.596Z,99535.09
2022-08-17T13:08:00.297Z,99531.19
2022-08-17T13:10:33.435Z,99524.84
2022-08-17T13:13:17.621Z,99512.75
2022-08-17T13:15:53.455Z,99514.84
2022-08-17T13:18:42.317Z,99507.31
2022-08-17T13:21:11.828Z,99513.25
2022-08-17T13:23:38.391Z,99508.38
2022-08-17T13:26:17.276Z,99502.22
2022-08-17T13:28:48.518Z,99493.41
2022-08-17T13:31:24.118Z,99491.50
2022-08-17T13:33:51.009Z,99487.50
2022-08-17T13:36:30.119Z,99489.34
2022-08-17T13:39:21.255Z,99496.22
2022-08-17T13:41:49.428Z,99504.59
2022-08-17T13:44:37.127Z,99506.25
2022-08-17T13:47:17.470Z,99512.50
2022-08-17T13:49:48.659Z,99510.75
2022-08-17T13:52:37.920Z,99522.16
2022-08-17T13:55:17.153Z,99520.69
2022-08-17T13:58:03.619Z,99526.84
2022-08-17T14:00:36.248Z,99519.69
2022-08-17T14:03:04.148Z,99525.94
2022-08-17T14:05:31.346Z,99529.00
2022-08-17T14:08:02.656Z,99525.97
2022-08-17T14:10:35.857Z,99524.31
2022-08-17T14:13:03.109Z,99524.50
2022-08-17T14:15:55.349Z,99527.06
2022-08-17T14:18:18.102Z,99523.41
2022-08-17T14:21:08.302Z,99534.50
2022-08-17T14:23:36.184Z,99531.63
2022-08-17T14:26:03.529Z,99521.84
2022-08-17T14:28:30.012Z,99525.31
2022-08-17T14:31:00.348Z,99529.03
2022-08-17T14:33:28.298Z,99533.19
2022-08-17T14:35:56.014Z,99531.94
2022-08-17T14:38:23.564Z,99529.72
2022-08-17T14:40:50.277Z,99529.19
2022-08-17T14:43:17.964Z,99519.53
2022-08-17T14:45:44.509Z,99518.16
2022-08-17T14:48:11.165Z,99520.00
2022-08-17T14:50:41.077Z,99523.44
2022-08-17T14:53:09.997Z,99511.88
2022-08-17T14:55:39.877Z,99514.47
2022-08-17T14:58:06.959Z,99506.44
2022-08-17T15:00:33.854Z,99499.44
2022-08-17T15:03:01.289Z,99493.97
2022-08-17T15:05:31.645Z,99501.75
2022-08-17T15:07:59.375Z,99506.25
2022-08-17T15:10:26.125Z,99499.06
2022-08-17T15:12:52.730Z,99504.66
2022-08-17T15:15:19.880Z,99506.69
2022-08-17T15:17:46.449Z,99500.50
2022-08-17T15:20:18.749Z,99501.97
2022-08-17T15:22:46.804Z,99492.97
2022-08-17T15:25:14.249Z,99502.84
2022-08-17T15:27:40.859Z,99494.81
2022-08-17T15:30:08.547Z,99497.41
2022-08-17T15:32:38.105Z,99493.78
2022-08-17T15:35:06.740Z,99500.09
2022-08-17T15:37:33.411Z,99497.81
2022-08-17T15:40:01.294Z,99500.16
2022-08-17T15:42:27.964Z,99493.63
2022-08-17T15:44:57.604Z,99493.03
2022-08-17T15:47:24.879Z,99490.19
2022-08-17T15:49:53.581Z,99495.44
2022-08-17T15:52:27.692Z,99500.81
2022-08-17T15:54:59.662Z,99490.59
2022-08-17T15:57:27.460Z,99493.25
2022-08-17T15:59:59.028Z,99492.19
2022-08-17T16:03:15.987Z,99491.38
2022-08-17T16:05:24.094Z,99493.19
2022-08-17T16:07:52.072Z,99503.47
2022-08-17T16:10:19.497Z,99505.94
2022-08-17T16:12:48.473Z,99508.28
2022-08-17T16:15:16.586Z,99503.56
2022-08-17T16:17:43.090Z,99510.84
2022-08-17T16:20:19.928Z,99510.88
2022-08-17T16:22:48.685Z,99510.34
2022-08-17T16:25:21.285Z,99513.34
2022-08-17T16:27:53.528Z,99515.28
2022-08-17T16:30:23.186Z,99516.91
2022-08-17T16:32:54.320Z,99507.16
2022-08-17T16:35:22.711Z,99503.91
2022-08-17T16:37:49.507Z,99508.09
2022-08-17T16:40:16.845Z,99505.31
2022-08-17T16:42:45.893Z,99510.00
2022-08-17T16:45:18.483Z,99504.59
2022-08-17T16:47:45.473Z,99520.16
2022-08-17T16:50:13.925Z,99527.31
2022-08-17T16:52:40.825Z,99527.66
2022-08-17T16:55:09.365Z,99518.97
2022-08-17T16:57:47.505Z,99522.56
2022-08-17T17:00:19.204Z,99529.91
2022-08-17T17:02:47.770Z,99529.97
2022-08-17T17:05:25.198Z,99526.44
2022-08-17T17:08:04.020Z,99528.34
2022-08-17T17:10:43.277Z,99527.78
2022-08-17T17:13:14.729Z,99537.34
2022-08-17T17:15:55.180Z,99522.84
2022-08-17T17:18:30.318Z,99533.22
2022-08-17T17:20:58.218Z,99530.75
2022-08-17T17:23:38.569Z,99538.09
2022-08-17T17:26:23.748Z,99527.97
2022-08-17T17:29:05.763Z,99522.78
2022-08-17T17:31:38.438Z,99528.22
2022-08-17T17:34:07.340Z,99532.00
2022-08-17T17:36:52.638Z,99533.03
2022-08-17T17:39:33.589Z,99543.91
2022-08-17T17:42:07.772Z,99555.88
2022-08-17T17:44:39.192Z,99564.34
2022-08-17T17:47:06.075Z,99564.59
2022-08-17T17:49:39.687Z,99564.78
2022-08-17T17:52:19.174Z,99565.03
2022-08-17T17:55:25.533Z,99559.03
2022-08-17T17:58:11.009Z,99562.97
2022-08-17T18:00:40.549Z,99563.81
2022-08-17T18:03:40.358Z,99566.97
2022-08-17T18:06:12.605Z,99561.72
2022-08-17T18:08:50.746Z,99565.22
2022-08-17T18:11:41.392Z,99571.19
2022-08-17T18:14:27.428Z,99579.09
2022-08-17T18:16:56.743Z,99584.47
2022-08-17T18:19:25.567Z,99592.31
2022-08-17T18:22:03.345Z,99581.97
2022-08-17T18:24:39.574Z,99578.63
2022-08-17T18:27:37.548Z,99578.69
2022-08-17T18:30:27.618Z,99579.75
2022-08-17T18:32:54.295Z,99580.25
2022-08-17T18:35:22.235Z,99573.19
2022-08-17T18:37:52.614Z,99586.19
2022-08-17T18:40:19.633Z,99591.00
2022-08-17T18:42:55.522Z,99590.47
2022-08-17T18:45:33.556Z,99588.78
2022-08-17T18:48:00.933Z,99596.06
2022-08-17T18:50:36.479Z,99593.91
2022-08-17T18:53:30.177Z,99601.81
2022-08-17T18:56:27.852Z,99596.78
2022-08-17T18:59:04.428Z,99598.41
2022-08-17T19:02:03.303Z,99604.94
2022-08-17T19:04:39.463Z,99608.16
2022-08-17T19:07:13.176Z,99618.47
2022-08-17T19:09:49.252Z,99613.41
2022-08-17T19:12:44.589Z,99610.84
2022-08-17T19:15:14.188Z,99613.47
2022-08-17T19:17:50.234Z,99610.66
2022-08-17T19:20:27.084Z,99615.22
2022-08-17T19:23:07.290Z,99617.66
2022-08-17T19:25:38.281Z,99622.03
2022-08-17T19:28:22.225Z,99614.50
2022-08-17T19:30:54.206Z,99620.91
2022-08-17T19:33:20.904Z,99618.19
2022-08-17T19:35:55.538Z,99622.53
2022-08-17T19:38:34.280Z,99626.56
2022-08-17T19:41:07.723Z,99627.84
2022-08-17T19:44:07.051Z,99628.03
2022-08-17T19:46:56.362Z,99637.00
2022-08-17T19:49:52.786Z,99638.59
2022-08-17T19:52:37.672Z,99640.16
2022-08-17T19:55:30.663Z,99637.44
2022-08-17T19:58:18.058Z,99633.78
2022-08-17T20:00:50.321Z,99639.34
2022-08-17T20:03:28.364Z,99636.88
2022-08-17T20:06:12.669Z,99638.22
2022-08-17T20:08:45.094Z,99635.72
2022-08-17T20:11:19.892Z,99638.22
2022-08-17T20:13:59.041Z,99637.88
2022-08-17T20:16:26.175Z,99644.88
2022-08-17T20:18:59.812Z,99640.53
2022-08-17T20:21:37.293Z,99643.00
2022-08-17T20:24:17.994Z,99631.97
2022-08-17T20:26:57.981Z,99646.06
2022-08-17T20:29:37.445Z,99648.03
2022-08-17T20:32:15.082Z,99643.47
2022-08-17T20:34:45.520Z,99650.75
2022-08-17T20:37:14.739Z,99647.84
2022-08-17T20:40:09.576Z,99648.25
2022-08-17T20:42:36.993Z,99648.53
2022-08-17T20:45:25.106Z,99640.38
2022-08-17T20:48:30.872Z,99651.25
2022-08-17T20:50:52.751Z,99655.53
2022-08-17T20:53:54.043Z,99657.97
2022-08-17T20:56:45.097Z,99668.28
2022-08-17T20:59:20.421Z,99676.00
2022-08-17T21:02:08.055Z,99675.03
2022-08-17T21:05:00.767Z,99676.06
2022-08-17T21:07:33.043Z,99670.06
2022-08-17T21:10:28.297Z,99674.59
2022-08-17T21:13:16.019Z,99674.34
2022-08-17T21:15:48.529Z,99677.72
2022-08-17T21:18:18.370Z,99679.03
2022-08-17T21:21:06.695Z,99677.72
2022-08-17T21:23:49.617Z,99680.84
2022-08-17T21:26:32.760Z,99687.09
2022-08-17T21:29:17.906Z,99688.41
2022-08-17T21:32:05.383Z,99690.38
2022-08-17T21:34:43.337Z,99693.19
2022-08-17T21:37:30.874Z,99690.03
2022-08-17T21:40:19.661Z,99688.88
2022-08-17T21:42:49.510Z,99684.16
2022-08-17T21:45:37.506Z,99682.00
2022-08-17T21:48:08.997Z,99675.50
2022-08-17T21:50:35.998Z,99677.41
2022-08-17T21:53:03.463Z,99681.50
2022-08-17T21:55:31.782Z,99673.88
2022-08-17T21:58:14.742Z,99673.88
2022-08-17T22:00:44.038Z,99668.22
2022-08-17T22:03:23.465Z,99681.13
2022-08-17T22:05:51.555Z,99676.56
2022-08-17T22:08:21.285Z,99665.31
2022-08-17T22:10:50.512Z,99667.69
2022-08-17T22:13:17.608Z,99671.78
2022-08-17T22:15:50.287Z,99670.31
2022-08-17T22:18:27.189Z,99667.16
2022-08-17T22:20:56.809Z,99657.25
2022-08-17T22:23:54.130Z,99652.53
2022-08-17T22:26:23.066Z,99667.66
2022-08-17T22:28:56.647Z,99664.34
2022-08-17T22:31:25.326Z,99655.97
2022-08-17T22:33:59.791Z,99654.31
2022-08-17T22:36:33.907Z,99649.97
2022-08-17T22:39:01.379Z,99647.72
2022-08-17T22:41:47.028Z,99642.47
2022-08-17T22:44:17.715Z,99641.53
2022-08-17T22:47:13.886Z,99638.59
2022-08-17T22:49:57.128Z,99647.94
2022-08-17T22:53:01.652Z,99634.41
2022-08-17T22:55:48.998Z,99637.94
2022-08-17T22:58:37.385Z,99630.75
2022-08-17T23:01:28.609Z,99632.19
2022-08-17T23:04:07.262Z,99634.56
2022-08-17T23:06:35.225Z,99626.56
2022-08-17T23:09:04.370Z,99631.28
2022-08-17T23:11:48.615Z,99622.34
2022-08-17T23:14:20.496Z,99613.50
2022-08-17T23:16:48.962Z,99617.41
2022-08-17T23:19:20.211Z,99619.91
2022-08-17T23:21:47.077Z,99619.06
2022-08-17T23:24:25.564Z,99623.41
2022-08-17T23:26:52.244Z,99626.13
2022-08-17T23:29:21.329Z,99616.59
2022-08-17T23:31:49.186Z,99618.25
2022-08-17T23:34:18.307Z,99612.59
2022-08-17T23:36:50.533Z,99616.72
2022-08-17T23:39:24.703Z,99613.09
2022-08-17T23:41:56.828Z,99606.50
2022-08-17T23:44:23.468Z,99608.84
2022-08-17T23:46:54.005Z,99607.28
2022-08-17T23:49:20.871Z,99613.53
2022-08-17T23:51:48.123Z,99602.59
2022-08-17T23:54:35.453Z,99599.28
2022-08-17T23:57:04.720Z,99597.88
2022-08-17T23:59:33.369Z,99596.25
